Hlavní strana
METAR-TAF:

METAR-TAF

Letiště :

Chartúm, Súdán

zeměpisná šířka: 15-36N, zeměpisná délka: 032-33E, výška: 382 m

Aktuální stav počasí

Zpráva byla vytvořena před 32 minutami, v 17:30 UTC
Severoseverovýchodní vítr 6 kt
Teplota 35°C
Vlhkost vzduchu 6%
Tlak 1008 hPa
Viditelnost 10 km a více
Žádná oblačnost pod 1500 m, nevyskytují se cumulonimby.

METAR: HSSS 241730Z 02006KT CAVOK 35/M07 Q1008 NOSIG

Čas: 21:02 (18:02 UTC)

Předpověď počasí

Zpráva byla vytvořena před 1 hodinou a 2 minutami, v 17:00 UTC
Předpověď platná od 24 v 18 UTC do 25 v 24 UTC
Severoseverovýchodní vítr 10 kt s nárazy do 20 kt
Viditelnost: 8000 m
Jasno

TAF: HSSS 241700Z 2418/2524 03010G20KT 8000 SKC

Stav a předpovědi počasí z více než 4 000 letišť (zprávy METAR a TAF).

Červené a žluté tečky na mapě představují dostupné meteorologické stanice.

Když kurzor umístíte na tečku, zobrazí se název stanice.

Pak kliknutím zobrazíte stav a předpověď počasí.

Chcete-li změnit mapu, kliknutím na zelené tlačítko se znaménkem +mapu přiblížíte, kliknutím na zelené tlačítko se znaménkem – mapu oddálíte a kliknutím na zelené šipky přejdete na sousední mapy.


METAR-TAF: